sensor_id;sensor_type;location;lat;lon;timestamp;P1;durP1;ratioP1;P2;durP2;ratioP2
22628;SDS011;11481;53.694;9.910;2023-09-07T00:01:34;6.18;;;3.78;;
22628;SDS011;11481;53.694;9.910;2023-09-07T00:04:01;6.10;;;3.78;;
22628;SDS011;11481;53.694;9.910;2023-09-07T00:06:29;3.85;;;3.10;;
22628;SDS011;11481;53.694;9.910;2023-09-07T00:08:56;5.97;;;3.58;;
22628;SDS011;11481;53.694;9.910;2023-09-07T00:11:23;6.57;;;3.58;;
22628;SDS011;11481;53.694;9.910;2023-09-07T00:13:49;5.07;;;3.13;;
22628;SDS011;11481;53.694;9.910;2023-09-07T00:16:17;5.72;;;3.28;;
22628;SDS011;11481;53.694;9.910;2023-09-07T00:18:44;5.22;;;2.97;;
22628;SDS011;11481;53.694;9.910;2023-09-07T00:21:10;6.10;;;3.80;;
22628;SDS011;11481;53.694;9.910;2023-09-07T00:23:39;4.45;;;3.20;;
22628;SDS011;11481;53.694;9.910;2023-09-07T00:26:06;7.07;;;3.78;;
22628;SDS011;11481;53.694;9.910;2023-09-07T00:28:33;4.75;;;3.53;;
22628;SDS011;11481;53.694;9.910;2023-09-07T00:31:00;4.57;;;3.38;;
22628;SDS011;11481;53.694;9.910;2023-09-07T00:33:27;4.97;;;3.13;;
22628;SDS011;11481;53.694;9.910;2023-09-07T00:35:54;4.32;;;2.88;;
22628;SDS011;11481;53.694;9.910;2023-09-07T00:38:20;5.95;;;3.35;;
22628;SDS011;11481;53.694;9.910;2023-09-07T00:40:47;5.95;;;3.55;;
22628;SDS011;11481;53.694;9.910;2023-09-07T00:43:14;4.43;;;3.67;;
22628;SDS011;11481;53.694;9.910;2023-09-07T00:45:41;4.45;;;3.08;;
22628;SDS011;11481;53.694;9.910;2023-09-07T00:48:07;4.07;;;3.60;;
22628;SDS011;11481;53.694;9.910;2023-09-07T00:50:35;4.50;;;3.30;;
22628;SDS011;11481;53.694;9.910;2023-09-07T00:53:01;4.20;;;3.28;;
22628;SDS011;11481;53.694;9.910;2023-09-07T00:55:29;4.15;;;3.50;;
22628;SDS011;11481;53.694;9.910;2023-09-07T00:57:59;4.32;;;3.00;;
22628;SDS011;11481;53.694;9.910;2023-09-07T01:00:26;5.05;;;3.53;;
22628;SDS011;11481;53.694;9.910;2023-09-07T01:02:53;3.83;;;2.85;;
22628;SDS011;11481;53.694;9.910;2023-09-07T01:05:24;5.65;;;3.38;;
22628;SDS011;11481;53.694;9.910;2023-09-07T01:08:15;6.55;;;3.22;;
22628;SDS011;11481;53.694;9.910;2023-09-07T01:10:49;4.40;;;3.05;;
22628;SDS011;11481;53.694;9.910;2023-09-07T01:13:16;4.60;;;3.50;;
22628;SDS011;11481;53.694;9.910;2023-09-07T01:15:44;4.50;;;3.35;;
22628;SDS011;11481;53.694;9.910;2023-09-07T01:18:10;5.20;;;3.67;;
22628;SDS011;11481;53.694;9.910;2023-09-07T01:20:50;5.35;;;3.53;;
22628;SDS011;11481;53.694;9.910;2023-09-07T01:23:18;5.13;;;3.78;;
22628;SDS011;11481;53.694;9.910;2023-09-07T01:25:45;6.20;;;3.72;;
22628;SDS011;11481;53.694;9.910;2023-09-07T01:28:13;5.97;;;3.50;;
22628;SDS011;11481;53.694;9.910;2023-09-07T01:30:41;4.53;;;3.28;;
22628;SDS011;11481;53.694;9.910;2023-09-07T01:33:08;4.90;;;3.33;;
22628;SDS011;11481;53.694;9.910;2023-09-07T01:35:34;5.60;;;3.28;;
22628;SDS011;11481;53.694;9.910;2023-09-07T01:38:03;5.20;;;3.38;;
22628;SDS011;11481;53.694;9.910;2023-09-07T01:40:30;4.75;;;3.67;;
22628;SDS011;11481;53.694;9.910;2023-09-07T01:42:56;4.95;;;3.65;;
22628;SDS011;11481;53.694;9.910;2023-09-07T01:45:23;5.10;;;3.70;;
22628;SDS011;11481;53.694;9.910;2023-09-07T01:47:50;4.13;;;3.15;;
22628;SDS011;11481;53.694;9.910;2023-09-07T01:50:18;6.07;;;4.07;;
22628;SDS011;11481;53.694;9.910;2023-09-07T01:52:48;7.43;;;4.03;;
22628;SDS011;11481;53.694;9.910;2023-09-07T01:55:15;6.70;;;4.18;;
22628;SDS011;11481;53.694;9.910;2023-09-07T01:57:41;6.35;;;4.13;;
22628;SDS011;11481;53.694;9.910;2023-09-07T02:00:08;5.72;;;3.42;;
22628;SDS011;11481;53.694;9.910;2023-09-07T02:02:36;5.00;;;4.00;;
22628;SDS011;11481;53.694;9.910;2023-09-07T02:05:03;5.53;;;4.07;;
22628;SDS011;11481;53.694;9.910;2023-09-07T02:07:30;5.40;;;3.63;;
22628;SDS011;11481;53.694;9.910;2023-09-07T02:09:56;4.97;;;3.97;;
22628;SDS011;11481;53.694;9.910;2023-09-07T02:12:23;4.60;;;3.90;;
22628;SDS011;11481;53.694;9.910;2023-09-07T02:14:50;7.85;;;4.25;;
22628;SDS011;11481;53.694;9.910;2023-09-07T02:17:17;5.63;;;4.07;;
22628;SDS011;11481;53.694;9.910;2023-09-07T02:19:44;5.72;;;4.07;;
22628;SDS011;11481;53.694;9.910;2023-09-07T02:22:11;4.53;;;3.50;;
22628;SDS011;11481;53.694;9.910;2023-09-07T02:24:38;5.47;;;4.03;;
22628;SDS011;11481;53.694;9.910;2023-09-07T02:27:04;6.05;;;4.10;;
22628;SDS011;11481;53.694;9.910;2023-09-07T02:29:31;6.50;;;3.83;;
22628;SDS011;11481;53.694;9.910;2023-09-07T02:31:58;4.50;;;3.50;;
22628;SDS011;11481;53.694;9.910;2023-09-07T02:34:24;5.97;;;3.60;;
22628;SDS011;11481;53.694;9.910;2023-09-07T02:36:51;5.63;;;4.03;;
22628;SDS011;11481;53.694;9.910;2023-09-07T02:39:17;5.25;;;3.75;;
22628;SDS011;11481;53.694;9.910;2023-09-07T02:41:44;5.60;;;4.35;;
22628;SDS011;11481;53.694;9.910;2023-09-07T02:44:12;5.25;;;4.00;;
22628;SDS011;11481;53.694;9.910;2023-09-07T02:46:39;6.97;;;4.25;;
22628;SDS011;11481;53.694;9.910;2023-09-07T02:49:05;7.57;;;4.00;;
22628;SDS011;11481;53.694;9.910;2023-09-07T02:51:35;7.10;;;4.60;;
22628;SDS011;11481;53.694;9.910;2023-09-07T02:54:02;6.82;;;4.00;;
22628;SDS011;11481;53.694;9.910;2023-09-07T02:56:29;5.60;;;4.22;;
22628;SDS011;11481;53.694;9.910;2023-09-07T02:58:56;4.95;;;3.95;;
22628;SDS011;11481;53.694;9.910;2023-09-07T03:01:23;6.00;;;4.00;;
22628;SDS011;11481;53.694;9.910;2023-09-07T03:03:50;5.32;;;4.32;;
22628;SDS011;11481;53.694;9.910;2023-09-07T03:06:17;6.07;;;4.60;;
22628;SDS011;11481;53.694;9.910;2023-09-07T03:08:44;5.93;;;4.07;;
22628;SDS011;11481;53.694;9.910;2023-09-07T03:11:11;7.80;;;4.63;;
22628;SDS011;11481;53.694;9.910;2023-09-07T03:13:38;7.15;;;4.93;;
22628;SDS011;11481;53.694;9.910;2023-09-07T03:16:05;7.20;;;5.00;;
22628;SDS011;11481;53.694;9.910;2023-09-07T03:18:32;6.13;;;4.35;;
22628;SDS011;11481;53.694;9.910;2023-09-07T03:21:00;6.35;;;4.68;;
22628;SDS011;11481;53.694;9.910;2023-09-07T03:23:31;10.27;;;4.95;;
22628;SDS011;11481;53.694;9.910;2023-09-07T03:25:59;6.00;;;4.18;;
22628;SDS011;11481;53.694;9.910;2023-09-07T03:28:26;7.28;;;4.47;;
22628;SDS011;11481;53.694;9.910;2023-09-07T03:30:54;7.00;;;4.40;;
22628;SDS011;11481;53.694;9.910;2023-09-07T03:33:22;7.25;;;4.90;;
22628;SDS011;11481;53.694;9.910;2023-09-07T03:35:49;7.30;;;4.63;;
22628;SDS011;11481;53.694;9.910;2023-09-07T03:38:18;6.35;;;4.68;;
22628;SDS011;11481;53.694;9.910;2023-09-07T03:40:45;7.93;;;4.65;;
22628;SDS011;11481;53.694;9.910;2023-09-07T03:43:11;6.72;;;4.78;;
22628;SDS011;11481;53.694;9.910;2023-09-07T03:45:38;7.03;;;5.60;;
22628;SDS011;11481;53.694;9.910;2023-09-07T03:48:05;7.00;;;4.85;;
22628;SDS011;11481;53.694;9.910;2023-09-07T03:50:32;6.70;;;4.93;;
22628;SDS011;11481;53.694;9.910;2023-09-07T03:52:59;7.70;;;4.72;;
22628;SDS011;11481;53.694;9.910;2023-09-07T03:55:26;7.35;;;5.28;;
22628;SDS011;11481;53.694;9.910;2023-09-07T03:57:52;7.55;;;4.78;;
22628;SDS011;11481;53.694;9.910;2023-09-07T04:00:19;9.00;;;5.50;;
22628;SDS011;11481;53.694;9.910;2023-09-07T04:02:46;7.95;;;5.07;;
22628;SDS011;11481;53.694;9.910;2023-09-07T04:05:13;8.07;;;5.55;;
22628;SDS011;11481;53.694;9.910;2023-09-07T04:07:40;6.72;;;5.03;;
22628;SDS011;11481;53.694;9.910;2023-09-07T04:10:07;6.38;;;4.80;;
22628;SDS011;11481;53.694;9.910;2023-09-07T04:12:34;7.28;;;5.00;;
22628;SDS011;11481;53.694;9.910;2023-09-07T04:15:01;9.55;;;5.35;;
22628;SDS011;11481;53.694;9.910;2023-09-07T04:17:29;9.18;;;5.30;;
22628;SDS011;11481;53.694;9.910;2023-09-07T04:19:55;7.10;;;5.03;;
22628;SDS011;11481;53.694;9.910;2023-09-07T04:22:22;8.73;;;5.43;;
22628;SDS011;11481;53.694;9.910;2023-09-07T04:24:49;7.80;;;5.47;;
22628;SDS011;11481;53.694;9.910;2023-09-07T04:27:16;6.25;;;5.05;;
22628;SDS011;11481;53.694;9.910;2023-09-07T04:29:43;7.55;;;5.20;;
22628;SDS011;11481;53.694;9.910;2023-09-07T04:32:11;7.22;;;5.38;;
22628;SDS011;11481;53.694;9.910;2023-09-07T04:34:37;6.30;;;4.68;;
22628;SDS011;11481;53.694;9.910;2023-09-07T04:37:04;7.10;;;4.90;;
22628;SDS011;11481;53.694;9.910;2023-09-07T04:39:31;7.38;;;4.68;;
22628;SDS011;11481;53.694;9.910;2023-09-07T04:41:57;7.13;;;5.80;;
22628;SDS011;11481;53.694;9.910;2023-09-07T04:44:25;7.18;;;4.80;;
22628;SDS011;11481;53.694;9.910;2023-09-07T04:46:56;8.63;;;4.85;;
22628;SDS011;11481;53.694;9.910;2023-09-07T04:49:23;6.18;;;4.70;;
22628;SDS011;11481;53.694;9.910;2023-09-07T04:51:52;6.88;;;5.05;;
22628;SDS011;11481;53.694;9.910;2023-09-07T04:54:19;12.05;;;5.93;;
22628;SDS011;11481;53.694;9.910;2023-09-07T04:56:46;7.15;;;5.47;;
22628;SDS011;11481;53.694;9.910;2023-09-07T04:59:13;7.50;;;5.30;;
22628;SDS011;11481;53.694;9.910;2023-09-07T05:01:40;10.13;;;5.50;;
22628;SDS011;11481;53.694;9.910;2023-09-07T05:04:07;7.78;;;5.55;;
22628;SDS011;11481;53.694;9.910;2023-09-07T05:06:34;6.93;;;5.32;;
22628;SDS011;11481;53.694;9.910;2023-09-07T05:09:03;11.15;;;5.65;;
22628;SDS011;11481;53.694;9.910;2023-09-07T05:11:30;7.38;;;5.13;;
22628;SDS011;11481;53.694;9.910;2023-09-07T05:13:57;6.72;;;5.30;;
22628;SDS011;11481;53.694;9.910;2023-09-07T05:16:23;8.63;;;5.40;;
22628;SDS011;11481;53.694;9.910;2023-09-07T05:18:50;7.93;;;4.82;;
22628;SDS011;11481;53.694;9.910;2023-09-07T05:21:16;10.35;;;6.40;;
22628;SDS011;11481;53.694;9.910;2023-09-07T05:23:43;9.65;;;5.68;;
22628;SDS011;11481;53.694;9.910;2023-09-07T05:26:10;9.65;;;5.78;;
22628;SDS011;11481;53.694;9.910;2023-09-07T05:28:39;7.65;;;5.95;;
22628;SDS011;11481;53.694;9.910;2023-09-07T05:31:07;7.60;;;5.80;;
22628;SDS011;11481;53.694;9.910;2023-09-07T05:33:34;7.88;;;6.15;;
22628;SDS011;11481;53.694;9.910;2023-09-07T05:36:01;7.32;;;5.60;;
22628;SDS011;11481;53.694;9.910;2023-09-07T05:38:28;7.65;;;5.70;;
22628;SDS011;11481;53.694;9.910;2023-09-07T05:40:59;6.80;;;5.18;;
22628;SDS011;11481;53.694;9.910;2023-09-07T05:43:26;8.73;;;5.40;;
22628;SDS011;11481;53.694;9.910;2023-09-07T05:45:52;8.10;;;6.03;;
22628;SDS011;11481;53.694;9.910;2023-09-07T05:48:19;8.18;;;5.90;;
22628;SDS011;11481;53.694;9.910;2023-09-07T05:50:46;8.05;;;5.82;;
22628;SDS011;11481;53.694;9.910;2023-09-07T05:53:12;8.52;;;5.97;;
22628;SDS011;11481;53.694;9.910;2023-09-07T05:55:39;8.80;;;5.60;;
22628;SDS011;11481;53.694;9.910;2023-09-07T05:58:07;8.05;;;5.15;;
22628;SDS011;11481;53.694;9.910;2023-09-07T06:00:35;8.13;;;5.63;;
22628;SDS011;11481;53.694;9.910;2023-09-07T06:03:02;13.32;;;5.97;;
22628;SDS011;11481;53.694;9.910;2023-09-07T06:05:29;9.63;;;5.65;;
22628;SDS011;11481;53.694;9.910;2023-09-07T06:07:56;13.98;;;6.20;;
22628;SDS011;11481;53.694;9.910;2023-09-07T06:10:23;12.77;;;5.88;;
22628;SDS011;11481;53.694;9.910;2023-09-07T06:12:50;10.30;;;5.68;;
22628;SDS011;11481;53.694;9.910;2023-09-07T06:15:16;7.70;;;5.57;;
22628;SDS011;11481;53.694;9.910;2023-09-07T06:17:43;11.80;;;5.88;;
22628;SDS011;11481;53.694;9.910;2023-09-07T06:20:11;15.10;;;6.40;;
22628;SDS011;11481;53.694;9.910;2023-09-07T06:22:39;13.05;;;6.18;;
22628;SDS011;11481;53.694;9.910;2023-09-07T06:25:07;12.05;;;5.88;;
22628;SDS011;11481;53.694;9.910;2023-09-07T06:27:34;9.20;;;5.88;;
22628;SDS011;11481;53.694;9.910;2023-09-07T06:30:00;9.15;;;6.68;;
22628;SDS011;11481;53.694;9.910;2023-09-07T06:32:27;7.10;;;5.70;;
22628;SDS011;11481;53.694;9.910;2023-09-07T06:34:54;8.13;;;5.65;;
22628;SDS011;11481;53.694;9.910;2023-09-07T06:37:20;8.80;;;5.65;;
22628;SDS011;11481;53.694;9.910;2023-09-07T06:39:47;8.00;;;5.97;;
22628;SDS011;11481;53.694;9.910;2023-09-07T06:42:14;8.82;;;5.75;;
22628;SDS011;11481;53.694;9.910;2023-09-07T06:44:41;9.70;;;6.03;;
22628;SDS011;11481;53.694;9.910;2023-09-07T06:47:09;9.05;;;6.03;;
22628;SDS011;11481;53.694;9.910;2023-09-07T06:49:37;7.78;;;5.18;;
22628;SDS011;11481;53.694;9.910;2023-09-07T06:52:04;8.43;;;5.75;;
22628;SDS011;11481;53.694;9.910;2023-09-07T06:54:33;9.18;;;5.72;;
22628;SDS011;11481;53.694;9.910;2023-09-07T06:56:59;7.57;;;5.35;;
22628;SDS011;11481;53.694;9.910;2023-09-07T06:59:26;8.80;;;5.78;;
22628;SDS011;11481;53.694;9.910;2023-09-07T07:01:53;9.15;;;4.93;;
22628;SDS011;11481;53.694;9.910;2023-09-07T07:04:20;9.65;;;5.55;;
22628;SDS011;11481;53.694;9.910;2023-09-07T07:06:46;8.45;;;5.60;;
22628;SDS011;11481;53.694;9.910;2023-09-07T07:09:13;6.43;;;5.07;;
22628;SDS011;11481;53.694;9.910;2023-09-07T07:11:40;11.00;;;5.65;;
22628;SDS011;11481;53.694;9.910;2023-09-07T07:17:21;9.48;;;5.57;;
22628;SDS011;11481;53.694;9.910;2023-09-07T07:19:48;10.70;;;5.55;;
22628;SDS011;11481;53.694;9.910;2023-09-07T07:22:15;7.75;;;6.05;;
22628;SDS011;11481;53.694;9.910;2023-09-07T07:24:45;7.57;;;5.57;;
22628;SDS011;11481;53.694;9.910;2023-09-07T07:27:12;18.40;;;6.88;;
22628;SDS011;11481;53.694;9.910;2023-09-07T07:29:38;14.23;;;6.68;;
22628;SDS011;11481;53.694;9.910;2023-09-07T07:32:05;10.68;;;6.38;;
22628;SDS011;11481;53.694;9.910;2023-09-07T07:34:32;9.95;;;6.40;;
22628;SDS011;11481;53.694;9.910;2023-09-07T07:37:01;8.55;;;5.90;;
22628;SDS011;11481;53.694;9.910;2023-09-07T07:39:28;12.77;;;8.00;;
22628;SDS011;11481;53.694;9.910;2023-09-07T07:41:54;9.90;;;5.75;;
22628;SDS011;11481;53.694;9.910;2023-09-07T07:44:21;12.40;;;6.35;;
22628;SDS011;11481;53.694;9.910;2023-09-07T07:46:48;18.35;;;7.28;;
22628;SDS011;11481;53.694;9.910;2023-09-07T07:49:18;8.60;;;5.57;;
22628;SDS011;11481;53.694;9.910;2023-09-07T07:51:46;7.82;;;5.20;;
22628;SDS011;11481;53.694;9.910;2023-09-07T07:54:13;10.85;;;5.18;;
22628;SDS011;11481;53.694;9.910;2023-09-07T07:56:40;6.45;;;4.90;;
22628;SDS011;11481;53.694;9.910;2023-09-07T07:59:07;8.88;;;5.47;;
22628;SDS011;11481;53.694;9.910;2023-09-07T08:01:33;15.80;;;6.85;;
22628;SDS011;11481;53.694;9.910;2023-09-07T08:04:00;17.17;;;6.32;;
22628;SDS011;11481;53.694;9.910;2023-09-07T08:06:30;21.67;;;7.43;;
22628;SDS011;11481;53.694;9.910;2023-09-07T08:08:56;7.40;;;5.25;;
22628;SDS011;11481;53.694;9.910;2023-09-07T08:11:23;7.57;;;4.78;;
22628;SDS011;11481;53.694;9.910;2023-09-07T08:13:51;12.63;;;6.20;;
22628;SDS011;11481;53.694;9.910;2023-09-07T08:16:18;10.90;;;6.50;;
22628;SDS011;11481;53.694;9.910;2023-09-07T08:18:45;7.70;;;5.35;;
22628;SDS011;11481;53.694;9.910;2023-09-07T08:21:13;6.40;;;5.03;;
22628;SDS011;11481;53.694;9.910;2023-09-07T08:23:40;10.43;;;6.00;;
22628;SDS011;11481;53.694;9.910;2023-09-07T08:26:07;6.78;;;4.93;;
22628;SDS011;11481;53.694;9.910;2023-09-07T08:28:35;7.75;;;5.50;;
22628;SDS011;11481;53.694;9.910;2023-09-07T08:31:02;7.70;;;4.95;;
22628;SDS011;11481;53.694;9.910;2023-09-07T08:33:31;6.95;;;5.32;;
22628;SDS011;11481;53.694;9.910;2023-09-07T08:36:06;7.30;;;5.03;;
22628;SDS011;11481;53.694;9.910;2023-09-07T08:38:34;7.07;;;5.43;;
22628;SDS011;11481;53.694;9.910;2023-09-07T08:41:02;8.18;;;4.97;;
22628;SDS011;11481;53.694;9.910;2023-09-07T08:43:32;10.48;;;5.57;;
22628;SDS011;11481;53.694;9.910;2023-09-07T08:46:04;6.43;;;4.68;;
22628;SDS011;11481;53.694;9.910;2023-09-07T08:48:42;9.65;;;5.22;;
22628;SDS011;11481;53.694;9.910;2023-09-07T08:51:13;7.78;;;5.18;;
22628;SDS011;11481;53.694;9.910;2023-09-07T08:53:42;6.22;;;4.97;;
22628;SDS011;11481;53.694;9.910;2023-09-07T08:56:12;6.00;;;4.75;;
22628;SDS011;11481;53.694;9.910;2023-09-07T08:58:40;8.20;;;5.13;;
22628;SDS011;11481;53.694;9.910;2023-09-07T09:01:07;6.10;;;4.85;;
22628;SDS011;11481;53.694;9.910;2023-09-07T09:03:41;9.13;;;5.43;;
22628;SDS011;11481;53.694;9.910;2023-09-07T09:06:09;7.82;;;4.75;;
22628;SDS011;11481;53.694;9.910;2023-09-07T09:08:46;7.43;;;5.07;;
22628;SDS011;11481;53.694;9.910;2023-09-07T09:11:16;11.73;;;4.95;;
22628;SDS011;11481;53.694;9.910;2023-09-07T09:13:43;17.98;;;6.05;;
22628;SDS011;11481;53.694;9.910;2023-09-07T09:16:10;25.02;;;6.90;;
22628;SDS011;11481;53.694;9.910;2023-09-07T09:18:49;15.52;;;5.35;;
22628;SDS011;11481;53.694;9.910;2023-09-07T09:21:20;9.48;;;4.95;;
22628;SDS011;11481;53.694;9.910;2023-09-07T09:23:51;9.90;;;4.82;;
22628;SDS011;11481;53.694;9.910;2023-09-07T09:26:19;64.93;;;11.55;;
22628;SDS011;11481;53.694;9.910;2023-09-07T09:28:46;15.98;;;5.88;;
22628;SDS011;11481;53.694;9.910;2023-09-07T09:31:13;9.20;;;4.57;;
22628;SDS011;11481;53.694;9.910;2023-09-07T09:33:41;8.90;;;4.32;;
22628;SDS011;11481;53.694;9.910;2023-09-07T09:36:08;7.65;;;5.05;;
22628;SDS011;11481;53.694;9.910;2023-09-07T09:38:35;6.93;;;4.57;;
22628;SDS011;11481;53.694;9.910;2023-09-07T09:41:03;6.75;;;4.50;;
22628;SDS011;11481;53.694;9.910;2023-09-07T09:43:33;5.75;;;3.88;;
22628;SDS011;11481;53.694;9.910;2023-09-07T09:46:00;6.38;;;3.97;;
22628;SDS011;11481;53.694;9.910;2023-09-07T09:48:30;5.13;;;3.90;;
22628;SDS011;11481;53.694;9.910;2023-09-07T09:50:59;6.75;;;4.32;;
22628;SDS011;11481;53.694;9.910;2023-09-07T09:53:26;6.43;;;4.45;;
22628;SDS011;11481;53.694;9.910;2023-09-07T09:55:53;5.90;;;4.28;;
22628;SDS011;11481;53.694;9.910;2023-09-07T09:58:20;6.30;;;3.83;;
22628;SDS011;11481;53.694;9.910;2023-09-07T10:00:49;5.38;;;4.05;;
22628;SDS011;11481;53.694;9.910;2023-09-07T10:03:23;5.80;;;3.72;;
22628;SDS011;11481;53.694;9.910;2023-09-07T10:06:07;5.78;;;3.67;;
22628;SDS011;11481;53.694;9.910;2023-09-07T10:08:39;4.50;;;3.55;;
22628;SDS011;11481;53.694;9.910;2023-09-07T10:11:08;6.32;;;3.65;;
22628;SDS011;11481;53.694;9.910;2023-09-07T10:13:36;7.22;;;4.10;;
22628;SDS011;11481;53.694;9.910;2023-09-07T10:16:03;7.03;;;4.97;;
22628;SDS011;11481;53.694;9.910;2023-09-07T10:18:35;5.85;;;4.00;;
22628;SDS011;11481;53.694;9.910;2023-09-07T10:21:03;5.30;;;4.30;;
22628;SDS011;11481;53.694;9.910;2023-09-07T10:23:43;10.02;;;4.60;;
22628;SDS011;11481;53.694;9.910;2023-09-07T10:26:15;5.72;;;3.83;;
22628;SDS011;11481;53.694;9.910;2023-09-07T10:28:43;7.80;;;3.90;;
22628;SDS011;11481;53.694;9.910;2023-09-07T10:31:18;5.35;;;4.00;;
22628;SDS011;11481;53.694;9.910;2023-09-07T10:33:47;8.07;;;3.90;;
22628;SDS011;11481;53.694;9.910;2023-09-07T10:36:22;8.00;;;3.70;;
22628;SDS011;11481;53.694;9.910;2023-09-07T10:38:54;8.50;;;3.92;;
22628;SDS011;11481;53.694;9.910;2023-09-07T10:41:22;5.80;;;3.60;;
22628;SDS011;11481;53.694;9.910;2023-09-07T10:43:51;6.63;;;3.85;;
22628;SDS011;11481;53.694;9.910;2023-09-07T10:46:20;6.18;;;4.00;;
22628;SDS011;11481;53.694;9.910;2023-09-07T10:48:52;5.95;;;4.43;;
22628;SDS011;11481;53.694;9.910;2023-09-07T10:51:19;4.95;;;3.45;;
22628;SDS011;11481;53.694;9.910;2023-09-07T10:53:46;5.57;;;3.75;;
22628;SDS011;11481;53.694;9.910;2023-09-07T10:56:13;8.73;;;3.80;;
22628;SDS011;11481;53.694;9.910;2023-09-07T10:58:40;6.65;;;4.10;;
22628;SDS011;11481;53.694;9.910;2023-09-07T11:01:10;7.35;;;3.92;;
22628;SDS011;11481;53.694;9.910;2023-09-07T11:03:41;5.88;;;3.42;;
22628;SDS011;11481;53.694;9.910;2023-09-07T11:06:10;5.32;;;3.53;;
22628;SDS011;11481;53.694;9.910;2023-09-07T11:08:40;4.53;;;3.13;;
22628;SDS011;11481;53.694;9.910;2023-09-07T11:11:08;6.00;;;3.40;;
22628;SDS011;11481;53.694;9.910;2023-09-07T11:13:35;5.57;;;3.30;;
22628;SDS011;11481;53.694;9.910;2023-09-07T11:16:02;5.32;;;3.22;;
22628;SDS011;11481;53.694;9.910;2023-09-07T11:18:29;7.00;;;3.78;;
22628;SDS011;11481;53.694;9.910;2023-09-07T11:20:56;4.72;;;3.28;;
22628;SDS011;11481;53.694;9.910;2023-09-07T11:23:23;6.60;;;3.40;;
22628;SDS011;11481;53.694;9.910;2023-09-07T11:25:50;4.22;;;3.13;;
22628;SDS011;11481;53.694;9.910;2023-09-07T11:28:18;8.88;;;3.28;;
22628;SDS011;11481;53.694;9.910;2023-09-07T11:30:51;5.57;;;3.63;;
22628;SDS011;11481;53.694;9.910;2023-09-07T11:33:20;4.45;;;3.42;;
22628;SDS011;11481;53.694;9.910;2023-09-07T11:35:53;5.68;;;3.10;;
22628;SDS011;11481;53.694;9.910;2023-09-07T11:38:23;3.80;;;3.20;;
22628;SDS011;11481;53.694;9.910;2023-09-07T11:40:54;4.78;;;3.50;;
22628;SDS011;11481;53.694;9.910;2023-09-07T11:43:21;4.63;;;2.97;;
22628;SDS011;11481;53.694;9.910;2023-09-07T11:45:49;4.03;;;3.08;;
22628;SDS011;11481;53.694;9.910;2023-09-07T11:48:16;4.40;;;3.15;;
22628;SDS011;11481;53.694;9.910;2023-09-07T11:50:43;5.40;;;3.05;;
22628;SDS011;11481;53.694;9.910;2023-09-07T11:53:10;5.97;;;3.63;;
22628;SDS011;11481;53.694;9.910;2023-09-07T11:55:36;5.03;;;3.10;;
22628;SDS011;11481;53.694;9.910;2023-09-07T11:58:04;4.75;;;3.10;;
22628;SDS011;11481;53.694;9.910;2023-09-07T12:00:31;5.20;;;3.22;;
22628;SDS011;11481;53.694;9.910;2023-09-07T12:02:58;5.38;;;3.15;;
22628;SDS011;11481;53.694;9.910;2023-09-07T12:05:27;3.95;;;2.88;;
22628;SDS011;11481;53.694;9.910;2023-09-07T12:07:54;3.38;;;2.67;;
22628;SDS011;11481;53.694;9.910;2023-09-07T12:10:20;9.13;;;3.38;;
22628;SDS011;11481;53.694;9.910;2023-09-07T12:12:48;9.60;;;3.35;;
22628;SDS011;11481;53.694;9.910;2023-09-07T12:15:15;3.85;;;3.00;;
22628;SDS011;11481;53.694;9.910;2023-09-07T12:17:41;5.72;;;3.10;;
22628;SDS011;11481;53.694;9.910;2023-09-07T12:20:08;4.55;;;3.15;;
22628;SDS011;11481;53.694;9.910;2023-09-07T12:22:37;4.50;;;3.05;;
22628;SDS011;11481;53.694;9.910;2023-09-07T12:25:04;4.20;;;2.78;;
22628;SDS011;11481;53.694;9.910;2023-09-07T12:27:40;6.32;;;3.25;;
22628;SDS011;11481;53.694;9.910;2023-09-07T12:30:18;4.18;;;2.92;;
22628;SDS011;11481;53.694;9.910;2023-09-07T12:32:46;5.53;;;3.00;;
22628;SDS011;11481;53.694;9.910;2023-09-07T12:35:13;4.28;;;3.33;;
22628;SDS011;11481;53.694;9.910;2023-09-07T12:37:41;5.15;;;2.92;;
22628;SDS011;11481;53.694;9.910;2023-09-07T12:40:08;6.00;;;3.33;;
22628;SDS011;11481;53.694;9.910;2023-09-07T12:42:41;5.50;;;3.40;;
22628;SDS011;11481;53.694;9.910;2023-09-07T12:45:10;3.97;;;2.90;;
22628;SDS011;11481;53.694;9.910;2023-09-07T12:47:38;5.72;;;3.00;;
22628;SDS011;11481;53.694;9.910;2023-09-07T12:50:06;4.18;;;2.88;;
22628;SDS011;11481;53.694;9.910;2023-09-07T12:52:33;4.10;;;2.85;;
22628;SDS011;11481;53.694;9.910;2023-09-07T12:55:04;3.72;;;2.97;;
22628;SDS011;11481;53.694;9.910;2023-09-07T12:57:32;7.20;;;3.20;;
22628;SDS011;11481;53.694;9.910;2023-09-07T12:59:59;5.68;;;2.90;;
22628;SDS011;11481;53.694;9.910;2023-09-07T13:02:26;4.47;;;2.92;;
22628;SDS011;11481;53.694;9.910;2023-09-07T13:04:53;5.45;;;2.97;;
22628;SDS011;11481;53.694;9.910;2023-09-07T13:07:21;4.00;;;3.30;;
22628;SDS011;11481;53.694;9.910;2023-09-07T13:09:48;5.35;;;3.25;;
22628;SDS011;11481;53.694;9.910;2023-09-07T13:12:16;4.75;;;3.15;;
22628;SDS011;11481;53.694;9.910;2023-09-07T13:14:42;4.70;;;3.42;;
22628;SDS011;11481;53.694;9.910;2023-09-07T13:17:13;5.43;;;3.45;;
22628;SDS011;11481;53.694;9.910;2023-09-07T13:19:42;5.13;;;3.72;;
22628;SDS011;11481;53.694;9.910;2023-09-07T13:22:10;5.13;;;3.55;;
22628;SDS011;11481;53.694;9.910;2023-09-07T13:24:36;5.38;;;3.47;;
22628;SDS011;11481;53.694;9.910;2023-09-07T13:27:05;8.57;;;3.28;;
22628;SDS011;11481;53.694;9.910;2023-09-07T13:29:32;4.88;;;3.65;;
22628;SDS011;11481;53.694;9.910;2023-09-07T13:31:59;5.90;;;2.95;;
22628;SDS011;11481;53.694;9.910;2023-09-07T13:34:26;4.47;;;3.03;;
22628;SDS011;11481;53.694;9.910;2023-09-07T13:36:53;6.57;;;3.45;;
22628;SDS011;11481;53.694;9.910;2023-09-07T13:39:21;5.45;;;3.63;;
22628;SDS011;11481;53.694;9.910;2023-09-07T13:41:48;5.55;;;3.33;;
22628;SDS011;11481;53.694;9.910;2023-09-07T13:44:15;7.15;;;3.40;;
22628;SDS011;11481;53.694;9.910;2023-09-07T13:46:43;11.88;;;3.05;;
22628;SDS011;11481;53.694;9.910;2023-09-07T13:49:10;5.05;;;3.28;;
22628;SDS011;11481;53.694;9.910;2023-09-07T13:51:39;4.28;;;3.05;;
22628;SDS011;11481;53.694;9.910;2023-09-07T13:54:07;5.00;;;2.63;;
22628;SDS011;11481;53.694;9.910;2023-09-07T13:56:35;3.85;;;2.95;;
22628;SDS011;11481;53.694;9.910;2023-09-07T13:59:02;5.68;;;3.78;;
22628;SDS011;11481;53.694;9.910;2023-09-07T14:01:30;5.38;;;2.90;;
22628;SDS011;11481;53.694;9.910;2023-09-07T14:03:58;3.75;;;3.00;;
22628;SDS011;11481;53.694;9.910;2023-09-07T14:06:25;3.92;;;2.90;;
22628;SDS011;11481;53.694;9.910;2023-09-07T14:08:52;8.18;;;3.10;;
22628;SDS011;11481;53.694;9.910;2023-09-07T14:11:18;4.28;;;2.97;;
22628;SDS011;11481;53.694;9.910;2023-09-07T14:13:47;3.47;;;2.55;;
22628;SDS011;11481;53.694;9.910;2023-09-07T14:16:15;4.55;;;3.10;;
22628;SDS011;11481;53.694;9.910;2023-09-07T14:18:43;3.83;;;2.90;;
22628;SDS011;11481;53.694;9.910;2023-09-07T14:21:10;4.78;;;3.33;;
22628;SDS011;11481;53.694;9.910;2023-09-07T14:23:37;3.40;;;2.70;;
22628;SDS011;11481;53.694;9.910;2023-09-07T14:26:04;4.80;;;3.10;;
22628;SDS011;11481;53.694;9.910;2023-09-07T14:28:30;5.35;;;2.83;;
22628;SDS011;11481;53.694;9.910;2023-09-07T14:30:58;3.42;;;2.58;;
22628;SDS011;11481;53.694;9.910;2023-09-07T14:33:29;6.20;;;3.20;;
22628;SDS011;11481;53.694;9.910;2023-09-07T14:35:56;3.85;;;3.20;;
22628;SDS011;11481;53.694;9.910;2023-09-07T14:38:23;3.67;;;2.83;;
22628;SDS011;11481;53.694;9.910;2023-09-07T14:40:52;5.18;;;2.50;;
22628;SDS011;11481;53.694;9.910;2023-09-07T14:43:22;3.63;;;2.58;;
22628;SDS011;11481;53.694;9.910;2023-09-07T14:45:49;3.97;;;2.70;;
22628;SDS011;11481;53.694;9.910;2023-09-07T14:48:16;3.42;;;2.53;;
22628;SDS011;11481;53.694;9.910;2023-09-07T14:50:44;5.03;;;2.78;;
22628;SDS011;11481;53.694;9.910;2023-09-07T14:53:11;3.85;;;2.83;;